createdAt,value
2022-11-28T00:01:05.054Z,44
2022-11-28T00:16:05.135Z,44
2022-11-28T00:31:04.703Z,43
2022-11-28T00:46:04.825Z,44
2022-11-28T01:01:05.278Z,42
2022-11-28T01:16:05.692Z,45
2022-11-28T01:31:05.282Z,36
2022-11-28T01:46:04.483Z,35
2022-11-28T02:01:04.485Z,35
2022-11-28T02:16:04.797Z,42
2022-11-28T02:31:05.023Z,44
2022-11-28T02:46:04.632Z,39
2022-11-28T03:01:04.847Z,37
2022-11-28T03:16:05.665Z,34
2022-11-28T03:31:05.043Z,40
2022-11-28T03:46:05.038Z,44
2022-11-28T04:01:05.546Z,42
2022-11-28T04:16:05.220Z,39
2022-11-28T04:31:05.286Z,35
2022-11-28T04:46:04.760Z,30
2022-11-28T05:01:05.177Z,31
2022-11-28T05:16:05.673Z,29
2022-11-28T05:31:04.847Z,31
2022-11-28T05:46:05.204Z,30
2022-11-28T06:01:05.629Z,30
2022-11-28T06:16:05.081Z,29
2022-11-28T06:31:05.018Z,29
2022-11-28T06:46:05.323Z,33
2022-11-28T07:01:05.176Z,37
2022-11-28T07:16:04.852Z,34
2022-11-28T07:31:05.060Z,34
2022-11-28T07:46:05.465Z,33
2022-11-28T08:01:04.404Z,36
2022-11-28T08:16:05.017Z,35
2022-11-28T08:31:05.126Z,36
2022-11-28T08:46:05.014Z,37
2022-11-28T09:01:04.802Z,40
2022-11-28T09:16:05.269Z,40
2022-11-28T09:31:05.643Z,37
2022-11-28T09:46:05.036Z,38
2022-11-28T10:01:05.533Z,34
2022-11-28T10:16:04.799Z,31
2022-11-28T10:31:05.793Z,30
2022-11-28T10:46:04.753Z,28
2022-11-28T11:01:05.263Z,28
2022-11-28T11:16:05.614Z,25
2022-11-28T11:31:05.147Z,22
2022-11-28T11:46:05.490Z,20
2022-11-28T12:01:05.130Z,22
2022-11-28T12:16:04.780Z,24
2022-11-28T12:31:04.772Z,29
2022-11-28T12:46:05.023Z,31
2022-11-28T13:01:05.195Z,34
2022-11-28T13:16:05.533Z,34
2022-11-28T13:31:05.478Z,34
2022-11-28T13:46:05.576Z,28
2022-11-28T14:01:04.829Z,27
2022-11-28T14:16:05.034Z,48
2022-11-28T14:31:05.525Z,23
2022-11-28T14:46:04.618Z,18
2022-11-28T15:01:04.939Z,17
2022-11-28T15:16:04.696Z,16
2022-11-28T15:31:05.223Z,19
2022-11-28T15:46:05.064Z,23
2022-11-28T16:01:05.345Z,20
2022-11-28T16:16:04.785Z,40
2022-11-28T16:31:05.424Z,29
2022-11-28T16:46:04.499Z,34
2022-11-28T17:01:04.484Z,35
2022-11-28T17:16:04.572Z,36
2022-11-28T17:31:04.767Z,35
2022-11-28T17:46:05.137Z,34
2022-11-28T18:01:05.170Z,33
2022-11-28T18:16:04.677Z,37
2022-11-28T18:31:04.891Z,37
2022-11-28T18:46:05.340Z,57
2022-11-28T19:01:05.411Z,44
2022-11-28T19:16:04.793Z,42
2022-11-28T19:31:05.060Z,74
2022-11-28T19:46:05.080Z,43
2022-11-28T20:01:04.889Z,44
2022-11-28T20:16:05.470Z,49
2022-11-28T20:31:04.668Z,43
2022-11-28T20:46:04.864Z,43
2022-11-28T21:01:05.492Z,41
2022-11-28T21:16:04.786Z,43
2022-11-28T21:31:04.929Z,53
2022-11-28T21:46:05.548Z,43
2022-11-28T22:01:04.905Z,44
2022-11-28T22:16:04.422Z,51
2022-11-28T22:31:04.436Z,69
2022-11-28T22:46:05.481Z,53
2022-11-28T23:01:04.552Z,51
2022-11-28T23:16:05.589Z,57
2022-11-28T23:31:05.190Z,55
2022-11-28T23:46:05.418Z,54
